Terminal Aerodrome Forecast
Issued by NWS

Home | Current Version | Previous Version | Text Only | Print | Product List | Glossary On
Versions: 1 2 3 4 5 6 7 8 9 10 11 12 13
203
FTUS42 TJSJ 191731
TAFISX
TAF
TISX 191731Z 1918/2018 11011KT P6SM VCSH SCT019 SCT026
     FM192100 04005KT P6SM SCT026
     FM201300 11012KT P6SM SCT026=

USA.gov is the U.S. government's official web portal to all federal, state and local government web resources and services.